Time,TemperatureF,DewpointF,PressureIn,WindDirection,WindDirectionDegrees,WindSpeedMPH,WindSpeedGustMPH,Humidity,HourlyPrecipIn,Conditions,Clouds,dailyrainin,SoftwareType,DateUTC
2013-05-09 00:01:00,57.7,56.3,0.00,SSE,157,0.0,0.0,95,0.00,,---,0.00,VWS V13.01,2013-05-09 04:01:00,
2013-05-09 00:02:00,57.7,56.3,0.00,SSE,157,0.0,0.0,95,0.00,,---,0.00,VWS V13.01,2013-05-09 04:02:00,
2013-05-09 00:03:00,57.7,56.3,0.00,SSE,157,0.0,0.0,95,0.00,,---,0.00,VWS V13.01,2013-05-09 04:03:00,
2013-05-09 00:04:00,57.7,56.3,0.00,SSE,157,0.0,0.0,95,0.00,,---,0.00,VWS V13.01,2013-05-09 04:04:00,
2013-05-09 00:05:00,57.7,56.3,0.00,SSE,157,0.0,0.0,95,0.00,,---,0.00,VWS V13.01,2013-05-09 04:05:00,
2013-05-09 00:10:00,57.7,56.3,0.00,SSE,158,0.0,0.0,95,0.00,,---,0.00,VWS V13.01,2013-05-09 04:10:00,
2013-05-09 00:15:00,57.7,56.6,0.00,SSE,158,0.0,0.0,96,0.00,,---,0.00,VWS V13.01,2013-05-09 04:15:00,
2013-05-09 00:20:00,57.9,56.8,0.00,SSE,157,0.0,0.0,96,0.00,,---,0.00,VWS V13.01,2013-05-09 04:20:00,
2013-05-09 00:25:00,57.9,56.8,0.00,SSE,157,0.0,0.0,96,0.00,,---,0.00,VWS V13.01,2013-05-09 04:25:00,
2013-05-09 00:30:00,57.9,56.8,0.00,SSE,157,0.0,0.0,96,0.00,,---,0.00,VWS V13.01,2013-05-09 04:30:00,
2013-05-09 00:35:00,57.9,56.8,0.00,SSE,157,0.0,0.0,96,0.00,,---,0.00,VWS V13.01,2013-05-09 04:35:00,
2013-05-09 00:40:00,57.7,56.6,0.00,SSE,158,0.0,0.0,96,0.00,,---,0.00,VWS V13.01,2013-05-09 04:40:00,
2013-05-09 00:45:00,57.7,56.6,0.00,SSE,158,0.0,0.0,96,0.00,,---,0.00,VWS V13.01,2013-05-09 04:45:00,
2013-05-09 00:50:00,57.7,56.6,0.00,SSE,158,0.0,0.0,96,0.00,,---,0.00,VWS V13.01,2013-05-09 04:50:00,
2013-05-09 00:55:00,57.7,56.6,0.00,SSE,158,0.0,0.0,96,0.00,,---,0.00,VWS V13.01,2013-05-09 04:55:00,
2013-05-09 01:00:00,57.9,57.1,0.00,SSE,158,0.0,0.0,97,0.00,,---,0.00,VWS V13.01,2013-05-09 05:00:00,
2013-05-09 01:06:00,57.9,57.1,0.00,SSE,158,0.0,0.0,97,0.00,,---,0.00,VWS V13.01,2013-05-09 05:06:00,
2013-05-09 01:11:00,57.9,57.1,0.00,SSE,158,0.0,0.0,97,0.00,,---,0.00,VWS V13.01,2013-05-09 05:11:00,
2013-05-09 01:16:00,57.9,57.1,0.00,SSE,158,0.0,0.0,97,0.00,,---,0.00,VWS V13.01,2013-05-09 05:16:00,
2013-05-09 01:21:00,58.1,57.3,0.00,SSE,158,0.0,0.0,97,0.00,,---,0.00,VWS V13.01,2013-05-09 05:21:00,
2013-05-09 01:26:00,58.1,57.5,0.00,SSE,158,0.0,0.0,98,0.00,,---,0.00,VWS V13.01,2013-05-09 05:26:00,
2013-05-09 01:31:00,58.1,57.5,0.00,SSE,158,0.0,0.0,98,0.00,,---,0.00,VWS V13.01,2013-05-09 05:31:00,
2013-05-09 01:36:00,58.1,57.5,0.00,SSE,158,0.0,0.0,98,0.00,,---,0.00,VWS V13.01,2013-05-09 05:36:00,
2013-05-09 01:41:00,58.1,57.5,0.00,SSE,158,0.0,0.0,98,0.00,,---,0.00,VWS V13.01,2013-05-09 05:41:00,
2013-05-09 01:46:00,58.1,57.5,0.00,SSE,158,0.0,0.0,98,0.00,,---,0.00,VWS V13.01,2013-05-09 05:46:00,
2013-05-09 01:51:00,58.1,57.5,0.00,SSE,158,0.0,0.0,98,0.00,,---,0.00,VWS V13.01,2013-05-09 05:51:00,
2013-05-09 01:56:00,58.1,57.5,0.00,SSE,158,0.0,0.0,98,0.00,,---,0.00,VWS V13.01,2013-05-09 05:56:00,
2013-05-09 02:01:00,58.1,57.5,0.00,SSE,158,0.0,0.0,98,0.00,,---,0.00,VWS V13.01,2013-05-09 06:01:00,
2013-05-09 02:06:00,58.1,57.5,0.00,SSE,158,0.0,0.0,98,0.00,,---,0.00,VWS V13.01,2013-05-09 06:06:00,
2013-05-09 02:11:00,58.1,57.5,0.00,SW,236,0.0,0.0,98,0.00,,---,0.00,VWS V13.01,2013-05-09 06:11:00,
2013-05-09 02:16:00,58.1,57.5,0.00,SW,236,0.0,0.0,98,0.00,,---,0.00,VWS V13.01,2013-05-09 06:16:00,
2013-05-09 02:21:00,58.1,57.5,0.00,SW,236,0.0,0.0,98,0.00,,---,0.00,VWS V13.01,2013-05-09 06:21:00,
2013-05-09 02:26:00,58.1,57.5,0.00,SW,236,0.0,0.0,98,0.00,,---,0.00,VWS V13.01,2013-05-09 06:26:00,
2013-05-09 02:31:00,58.1,57.5,0.00,SW,236,0.0,0.0,98,0.00,,---,0.00,VWS V13.01,2013-05-09 06:31:00,
2013-05-09 02:36:00,58.1,57.5,0.00,SW,236,0.0,0.0,98,0.00,,---,0.00,VWS V13.01,2013-05-09 06:36:00,
2013-05-09 02:41:00,58.1,57.5,0.00,SW,236,0.0,0.0,98,0.00,,---,0.00,VWS V13.01,2013-05-09 06:41:00,
2013-05-09 02:46:00,58.1,57.5,0.00,SW,236,0.0,0.0,98,0.00,,---,0.00,VWS V13.01,2013-05-09 06:46:00,
2013-05-09 02:52:00,58.1,57.5,0.00,SW,236,0.0,0.0,98,0.00,,---,0.00,VWS V13.01,2013-05-09 06:52:00,
2013-05-09 02:57:00,58.1,57.5,0.00,SW,236,0.0,0.0,98,0.00,,---,0.00,VWS V13.01,2013-05-09 06:57:00,
2013-05-09 03:02:00,58.1,57.5,0.00,SW,236,0.0,0.0,98,0.00,,---,0.00,VWS V13.01,2013-05-09 07:02:00,
2013-05-09 03:07:00,58.1,57.5,0.00,SW,236,0.0,0.0,98,0.00,,---,0.00,VWS V13.01,2013-05-09 07:07:00,
2013-05-09 03:12:00,58.1,57.5,0.00,SW,236,0.0,0.0,98,0.00,,---,0.00,VWS V13.01,2013-05-09 07:12:00,
2013-05-09 03:17:00,58.1,57.5,0.00,SW,236,0.0,0.0,98,0.00,,---,0.00,VWS V13.01,2013-05-09 07:17:00,
2013-05-09 03:22:00,58.1,57.5,0.00,SW,236,0.0,0.0,98,0.00,,---,0.00,VWS V13.01,2013-05-09 07:22:00,
2013-05-09 03:27:00,58.1,57.5,0.00,SW,236,0.0,0.0,98,0.00,,---,0.00,VWS V13.01,2013-05-09 07:27:00,
2013-05-09 03:32:00,58.1,57.5,0.00,SW,236,0.0,0.0,98,0.00,,---,0.00,VWS V13.01,2013-05-09 07:32:00,
2013-05-09 03:37:00,58.1,57.5,0.00,WSW,237,0.0,0.0,98,0.00,,---,0.00,VWS V13.01,2013-05-09 07:37:00,
2013-05-09 03:42:00,58.1,57.5,0.00,WSW,237,0.0,0.0,98,0.00,,---,0.00,VWS V13.01,2013-05-09 07:42:00,
2013-05-09 03:47:00,58.1,57.5,0.00,WSW,237,0.0,0.0,98,0.00,,---,0.00,VWS V13.01,2013-05-09 07:47:00,
2013-05-09 03:52:00,58.1,57.5,0.00,WSW,237,0.0,0.0,98,0.00,,---,0.00,VWS V13.01,2013-05-09 07:52:00,
2013-05-09 03:57:00,58.1,57.5,0.00,WSW,237,0.0,0.0,98,0.00,,---,0.00,VWS V13.01,2013-05-09 07:57:00,
2013-05-09 04:02:00,57.9,57.4,0.00,WSW,237,0.0,0.0,98,0.00,,---,0.00,VWS V13.01,2013-05-09 08:02:00,
2013-05-09 04:07:00,58.1,57.5,0.00,WSW,237,0.0,0.0,98,0.00,,---,0.00,VWS V13.01,2013-05-09 08:07:00,
2013-05-09 04:12:00,58.1,57.5,0.00,WSW,237,0.0,0.0,98,0.00,,---,0.00,VWS V13.01,2013-05-09 08:12:00,
2013-05-09 04:17:00,57.9,57.4,0.00,WSW,237,0.0,0.0,98,0.00,,---,0.00,VWS V13.01,2013-05-09 08:17:00,
2013-05-09 04:22:00,57.9,57.4,0.00,WSW,237,0.0,0.0,98,0.00,,---,0.00,VWS V13.01,2013-05-09 08:22:00,
2013-05-09 04:27:00,57.9,57.4,0.00,WSW,237,0.0,0.0,98,0.00,,---,0.00,VWS V13.01,2013-05-09 08:27:00,
2013-05-09 04:33:00,57.9,57.4,0.00,WSW,244,0.0,0.0,98,0.00,,---,0.00,VWS V13.01,2013-05-09 08:33:00,
2013-05-09 04:38:00,57.9,57.4,0.00,WSW,244,0.0,0.0,98,0.00,,---,0.00,VWS V13.01,2013-05-09 08:38:00,
2013-05-09 04:43:00,57.9,57.4,0.00,WSW,244,0.0,0.0,98,0.00,,---,0.00,VWS V13.01,2013-05-09 08:43:00,
2013-05-09 04:48:00,57.9,57.4,0.00,WSW,244,0.0,0.0,98,0.00,,---,0.00,VWS V13.01,2013-05-09 08:48:00,
2013-05-09 04:53:00,57.7,57.2,0.00,WSW,244,0.0,0.0,98,0.00,,---,0.00,VWS V13.01,2013-05-09 08:53:00,
2013-05-09 04:58:00,57.7,57.2,0.00,WSW,244,0.0,0.0,98,0.00,,---,0.00,VWS V13.01,2013-05-09 08:58:00,
2013-05-09 05:03:00,57.6,56.7,0.00,WSW,244,0.0,0.0,97,0.00,,---,0.00,VWS V13.01,2013-05-09 09:03:00,
2013-05-09 05:08:00,57.6,56.7,0.00,WSW,244,0.0,0.0,97,0.00,,---,0.00,VWS V13.01,2013-05-09 09:08:00,
2013-05-09 05:13:00,57.6,56.7,0.00,WSW,244,0.0,0.0,97,0.00,,---,0.00,VWS V13.01,2013-05-09 09:13:00,
2013-05-09 05:18:00,57.6,56.7,0.00,WSW,244,0.0,0.0,97,0.00,,---,0.00,VWS V13.01,2013-05-09 09:18:00,
2013-05-09 05:23:00,57.7,56.9,0.00,WSW,244,0.0,0.0,97,0.00,,---,0.00,VWS V13.01,2013-05-09 09:23:00,
2013-05-09 05:28:00,57.7,57.2,0.00,WSW,244,0.0,0.0,98,0.00,,---,0.00,VWS V13.01,2013-05-09 09:28:00,
2013-05-09 05:33:00,57.7,57.2,0.00,WSW,244,0.0,0.0,98,0.00,,---,0.00,VWS V13.01,2013-05-09 09:33:00,
2013-05-09 05:38:00,57.7,57.2,0.00,WSW,243,0.0,0.0,98,0.00,,---,0.00,VWS V13.01,2013-05-09 09:38:00,
2013-05-09 05:43:00,57.7,57.2,0.00,SSW,211,0.0,0.0,98,0.00,,---,0.00,VWS V13.01,2013-05-09 09:43:00,
2013-05-09 05:48:00,57.7,57.2,0.00,WSW,242,0.0,4.0,98,0.00,,---,0.00,VWS V13.01,2013-05-09 09:48:00,
2013-05-09 05:53:00,57.7,57.2,0.00,WSW,245,2.7,3.6,98,0.00,,---,0.00,VWS V13.01,2013-05-09 09:53:00,
2013-05-09 05:58:00,57.7,56.9,0.00,WSW,245,0.0,3.6,97,0.00,,---,0.00,VWS V13.01,2013-05-09 09:58:00,
2013-05-09 06:03:00,57.7,57.2,0.00,WSW,245,0.0,0.0,98,0.00,,---,0.00,VWS V13.01,2013-05-09 10:03:00,
2013-05-09 06:08:00,57.7,57.2,0.00,WSW,245,0.0,0.0,98,0.00,,---,0.00,VWS V13.01,2013-05-09 10:08:00,
2013-05-09 06:13:00,57.6,57.0,0.00,WSW,245,0.0,0.0,98,0.00,,---,0.00,VWS V13.01,2013-05-09 10:13:00,
2013-05-09 06:18:00,57.6,57.0,0.00,WSW,245,0.0,0.0,98,0.00,,---,0.00,VWS V13.01,2013-05-09 10:18:00,
2013-05-09 06:23:00,57.4,56.8,0.00,NNE,29,4.0,4.0,98,0.00,,---,0.00,VWS V13.01,2013-05-09 10:23:00,
2013-05-09 06:29:00,57.4,56.8,0.00,NNE,16,0.0,4.0,98,0.00,,---,0.00,VWS V13.01,2013-05-09 10:29:00,
2013-05-09 06:34:00,57.4,56.8,0.00,WSW,252,3.1,3.6,98,0.00,,---,0.00,VWS V13.01,2013-05-09 10:34:00,
2013-05-09 06:39:00,57.4,56.8,0.00,West,263,3.6,5.4,98,0.00,,---,0.00,VWS V13.01,2013-05-09 10:39:00,
2013-05-09 06:44:00,57.4,56.8,0.00,WSW,251,3.6,5.4,98,0.00,,---,0.00,VWS V13.01,2013-05-09 10:44:00,
2013-05-09 06:49:00,57.4,56.8,0.00,West,265,2.2,5.4,98,0.00,,---,0.00,VWS V13.01,2013-05-09 10:49:00,
2013-05-09 06:54:00,57.4,56.8,0.00,West,271,0.0,2.7,98,0.00,,---,0.00,VWS V13.01,2013-05-09 10:54:00,
2013-05-09 06:59:00,57.4,56.8,0.00,West,259,0.0,3.1,98,0.00,,---,0.00,VWS V13.01,2013-05-09 10:59:00,
2013-05-09 07:04:00,57.4,56.8,0.00,West,260,0.0,0.0,98,0.00,,---,0.00,VWS V13.01,2013-05-09 11:04:00,
2013-05-09 07:09:00,57.4,56.8,0.00,WSW,247,0.0,0.0,98,0.00,,---,0.00,VWS V13.01,2013-05-09 11:09:00,
2013-05-09 07:14:00,57.4,56.8,0.00,West,267,0.0,0.0,98,0.00,,---,0.00,VWS V13.01,2013-05-09 11:14:00,
2013-05-09 07:19:00,57.4,56.8,0.00,West,266,0.0,0.0,98,0.00,,---,0.00,VWS V13.01,2013-05-09 11:19:00,
2013-05-09 07:24:00,57.6,57.0,0.00,WSW,238,0.0,0.0,98,0.00,,---,0.00,VWS V13.01,2013-05-09 11:24:00,
2013-05-09 07:29:00,57.6,57.0,0.00,WSW,240,0.0,0.0,98,0.00,,---,0.00,VWS V13.01,2013-05-09 11:29:00,
2013-05-09 07:34:00,57.6,57.0,0.00,WSW,242,0.0,0.0,98,0.00,,---,0.00,VWS V13.01,2013-05-09 11:34:00,
2013-05-09 07:39:00,57.6,57.0,0.00,WSW,241,0.0,0.0,98,0.00,,---,0.00,VWS V13.01,2013-05-09 11:39:00,
2013-05-09 07:44:00,57.6,57.0,0.00,WSW,241,0.0,0.0,98,0.00,,---,0.00,VWS V13.01,2013-05-09 11:44:00,
2013-05-09 07:49:00,57.6,57.0,0.00,WSW,241,0.0,0.0,98,0.00,,---,0.00,VWS V13.01,2013-05-09 11:49:00,
2013-05-09 07:54:00,57.6,57.0,0.00,ENE,63,0.0,0.0,98,0.00,,---,0.00,VWS V13.01,2013-05-09 11:54:00,
2013-05-09 08:00:00,57.6,57.0,0.00,ESE,107,0.0,0.0,98,0.00,,---,0.00,VWS V13.01,2013-05-09 12:00:00,
2013-05-09 08:05:00,57.6,57.0,0.00,ESE,107,0.0,0.0,98,0.00,,---,0.00,VWS V13.01,2013-05-09 12:05:00,
2013-05-09 08:10:00,57.7,57.2,0.00,SW,223,0.0,0.0,98,0.00,,---,0.00,VWS V13.01,2013-05-09 12:10:00,
2013-05-09 08:15:00,57.7,57.2,0.00,WSW,255,0.0,0.0,98,0.00,,---,0.00,VWS V13.01,2013-05-09 12:15:00,
2013-05-09 08:20:00,57.9,57.4,0.00,WNW,287,0.0,0.0,98,0.00,,---,0.00,VWS V13.01,2013-05-09 12:20:00,
2013-05-09 08:25:00,57.9,57.4,0.00,WNW,295,0.0,0.0,98,0.00,,---,0.00,VWS V13.01,2013-05-09 12:25:00,
2013-05-09 08:30:00,57.9,57.4,0.00,West,273,0.0,0.0,98,0.00,,---,0.00,VWS V13.01,2013-05-09 12:30:00,
2013-05-09 08:35:00,57.9,57.4,0.00,West,274,0.0,0.0,98,0.00,,---,0.00,VWS V13.01,2013-05-09 12:35:00,
2013-05-09 08:40:00,57.9,57.4,0.00,WNW,285,0.0,0.0,98,0.00,,---,0.00,VWS V13.01,2013-05-09 12:40:00,
2013-05-09 08:45:00,58.1,57.5,0.00,WNW,285,0.0,0.0,98,0.00,,---,0.00,VWS V13.01,2013-05-09 12:45:00,
2013-05-09 08:50:00,58.1,57.5,0.00,WNW,293,0.0,0.0,98,0.00,,---,0.00,VWS V13.01,2013-05-09 12:50:00,
2013-05-09 08:55:00,58.3,57.7,0.00,WNW,294,0.0,0.0,98,0.00,,---,0.00,VWS V13.01,2013-05-09 12:55:00,
2013-05-09 09:00:00,58.5,57.9,0.00,WNW,293,0.0,0.0,98,0.00,,---,0.00,VWS V13.01,2013-05-09 13:00:00,
2013-05-09 09:05:00,58.8,58.3,0.00,WNW,292,0.0,0.0,98,0.00,,---,0.00,VWS V13.01,2013-05-09 13:05:00,
2013-05-09 09:10:00,59.0,58.4,0.00,WNW,292,0.0,0.0,98,0.00,,---,0.00,VWS V13.01,2013-05-09 13:10:00,
2013-05-09 09:15:00,59.4,58.8,0.00,WNW,291,0.0,0.0,98,0.00,,---,0.00,VWS V13.01,2013-05-09 13:15:00,
2013-05-09 09:20:00,59.7,59.2,0.00,WNW,292,0.0,0.0,98,0.00,,---,0.00,VWS V13.01,2013-05-09 13:20:00,
2013-05-09 09:25:00,60.1,59.5,0.00,WNW,291,0.0,0.0,98,0.00,,---,0.00,VWS V13.01,2013-05-09 13:25:00,
2013-05-09 09:30:00,59.9,59.3,0.00,WNW,285,0.0,0.0,98,0.00,,---,0.00,VWS V13.01,2013-05-09 13:30:00,
2013-05-09 09:36:00,59.7,58.9,0.00,WNW,285,0.0,3.6,97,0.00,,---,0.00,VWS V13.01,2013-05-09 13:36:00,
2013-05-09 09:41:00,59.5,58.4,0.00,WNW,285,0.0,0.0,96,0.00,,---,0.00,VWS V13.01,2013-05-09 13:41:00,
2013-05-09 09:46:00,59.5,58.4,0.00,West,264,0.0,0.0,96,0.00,,---,0.00,VWS V13.01,2013-05-09 13:46:00,
2013-05-09 09:51:00,59.7,58.6,0.00,West,264,0.0,0.0,96,0.00,,---,0.00,VWS V13.01,2013-05-09 13:51:00,
2013-05-09 09:56:00,59.7,58.3,0.00,NW,304,0.0,2.7,95,0.00,,---,0.00,VWS V13.01,2013-05-09 13:56:00,
2013-05-09 10:01:00,59.7,58.3,0.00,WSW,246,0.0,0.0,95,0.00,,---,0.00,VWS V13.01,2013-05-09 14:01:00,
2013-05-09 10:06:00,59.7,58.3,0.00,SW,234,0.0,0.0,95,0.00,,---,0.00,VWS V13.01,2013-05-09 14:06:00,
2013-05-09 10:11:00,59.9,58.5,0.00,WNW,285,0.0,0.0,95,0.00,,---,0.00,VWS V13.01,2013-05-09 14:11:00,
2013-05-09 10:16:00,60.3,58.8,0.00,NW,307,0.0,0.0,95,0.00,,---,0.00,VWS V13.01,2013-05-09 14:16:00,
2013-05-09 10:21:00,60.4,59.0,0.00,WNW,289,0.0,0.0,95,0.00,,---,0.00,VWS V13.01,2013-05-09 14:21:00,
2013-05-09 10:26:00,60.6,59.2,0.00,WNW,290,0.0,0.0,95,0.00,,---,0.00,VWS V13.01,2013-05-09 14:26:00,
2013-05-09 10:31:00,60.8,59.4,0.00,WNW,303,2.7,2.7,95,0.00,,---,0.00,VWS V13.01,2013-05-09 14:31:00,
2013-05-09 10:36:00,60.8,59.1,0.00,WNW,294,2.7,3.1,94,0.00,,---,0.00,VWS V13.01,2013-05-09 14:36:00,
2013-05-09 10:41:00,60.8,59.1,0.00,WNW,286,0.0,0.0,94,0.00,,---,0.00,VWS V13.01,2013-05-09 14:41:00,
2013-05-09 10:46:00,61.0,59.0,0.00,NW,320,0.0,3.6,93,0.00,,---,0.00,VWS V13.01,2013-05-09 14:46:00,
2013-05-09 10:52:00,61.3,59.3,0.00,NW,312,0.0,0.0,93,0.00,,---,0.00,VWS V13.01,2013-05-09 14:52:00,
2013-05-09 10:57:00,61.3,59.0,0.00,NW,312,0.0,0.0,92,0.00,,---,0.00,VWS V13.01,2013-05-09 14:57:00,
2013-05-09 11:02:00,61.3,59.3,0.00,NW,312,0.0,0.0,93,0.00,,---,0.00,VWS V13.01,2013-05-09 15:02:00,
2013-05-09 11:07:00,61.7,59.4,0.00,NNW,340,0.0,4.5,92,0.00,,---,0.00,VWS V13.01,2013-05-09 15:07:00,
2013-05-09 11:12:00,61.7,59.4,0.00,NE,42,2.7,2.7,92,0.00,,---,0.00,VWS V13.01,2013-05-09 15:12:00,
2013-05-09 11:17:00,61.9,59.2,0.00,NW,310,0.0,2.7,91,0.00,,---,0.00,VWS V13.01,2013-05-09 15:17:00,
2013-05-09 11:22:00,62.6,59.3,0.00,NNE,12,0.0,0.0,89,0.00,,---,0.00,VWS V13.01,2013-05-09 15:22:00,
2013-05-09 11:27:00,62.6,59.3,0.00,North,9,0.0,0.0,89,0.00,,---,0.00,VWS V13.01,2013-05-09 15:27:00,
2013-05-09 11:32:00,62.2,58.7,0.00,NW,308,0.0,4.0,88,0.00,,---,0.00,VWS V13.01,2013-05-09 15:32:00,
2013-05-09 11:37:00,62.2,58.7,0.00,WNW,303,0.0,6.3,88,0.00,,---,0.00,VWS V13.01,2013-05-09 15:37:00,
2013-05-09 11:42:00,61.9,57.7,0.00,NNW,340,0.0,0.0,86,0.00,,---,0.00,VWS V13.01,2013-05-09 15:42:00,
2013-05-09 11:47:00,61.7,57.8,0.00,NNE,19,0.0,0.0,87,0.00,,---,0.00,VWS V13.01,2013-05-09 15:47:00,
2013-05-09 11:52:00,61.7,57.8,0.00,North,357,4.0,4.0,87,0.00,,---,0.00,VWS V13.01,2013-05-09 15:52:00,
2013-05-09 11:57:00,61.5,57.6,0.00,North,357,0.0,4.0,87,0.00,,---,0.00,VWS V13.01,2013-05-09 15:57:00,
2013-05-09 12:02:00,61.5,57.9,0.00,WNW,300,0.0,0.0,88,0.00,,---,0.00,VWS V13.01,2013-05-09 16:02:00,
2013-05-09 12:07:00,62.1,58.8,0.00,NNW,344,0.0,4.9,89,0.00,,---,0.00,VWS V13.01,2013-05-09 16:07:00,
2013-05-09 12:12:00,63.0,59.7,0.00,WNW,300,0.0,0.0,89,0.00,,---,0.00,VWS V13.01,2013-05-09 16:12:00,
2013-05-09 12:17:00,63.7,60.1,0.00,West,265,0.0,0.0,88,0.00,,---,0.00,VWS V13.01,2013-05-09 16:17:00,
2013-05-09 12:22:00,63.9,59.6,0.00,NW,310,0.0,0.0,86,0.00,,---,0.00,VWS V13.01,2013-05-09 16:22:00,
2013-05-09 12:27:00,64.0,58.8,0.00,NNE,25,0.0,4.0,83,0.00,,---,0.00,VWS V13.01,2013-05-09 16:27:00,
2013-05-09 12:33:00,64.4,58.5,0.00,North,353,0.0,0.0,81,0.00,,---,0.00,VWS V13.01,2013-05-09 16:33:00,
2013-05-09 12:38:00,64.8,58.1,0.00,WNW,302,4.0,4.0,79,0.00,,---,0.00,VWS V13.01,2013-05-09 16:38:00,
2013-05-09 12:43:00,65.7,59.0,0.00,NNW,348,0.0,2.2,79,0.00,,---,0.00,VWS V13.01,2013-05-09 16:43:00,
2013-05-09 12:48:00,65.7,59.0,0.00,West,261,3.1,4.0,79,0.00,,---,0.00,VWS V13.01,2013-05-09 16:48:00,
2013-05-09 12:53:00,65.8,57.7,0.00,North,357,0.0,4.9,75,0.00,,---,0.00,VWS V13.01,2013-05-09 16:53:00,
2013-05-09 12:58:00,66.4,58.6,0.00,WSW,256,0.0,4.9,76,0.00,,---,0.00,VWS V13.01,2013-05-09 16:58:00,
2013-05-09 13:03:00,66.4,58.2,0.00,NW,304,5.4,5.8,75,0.00,,---,0.00,VWS V13.01,2013-05-09 17:03:00,
2013-05-09 13:08:00,67.1,58.5,0.00,West,279,4.9,5.8,74,0.00,,---,0.00,VWS V13.01,2013-05-09 17:08:00,
2013-05-09 13:13:00,67.1,57.8,0.00,West,271,0.0,3.1,72,0.00,,---,0.00,VWS V13.01,2013-05-09 17:13:00,
2013-05-09 13:18:00,67.1,57.0,0.00,NNW,329,0.0,6.3,70,0.00,,---,0.00,VWS V13.01,2013-05-09 17:18:00,
2013-05-09 13:23:00,66.7,56.7,0.00,WNW,295,0.0,0.0,70,0.00,,---,0.00,VWS V13.01,2013-05-09 17:23:00,
2013-05-09 13:28:00,67.6,57.5,0.00,West,279,0.0,0.0,70,0.00,,---,0.00,VWS V13.01,2013-05-09 17:28:00,
2013-05-09 13:33:00,67.6,56.3,0.00,NW,309,4.9,6.7,67,0.00,,---,0.00,VWS V13.01,2013-05-09 17:33:00,
2013-05-09 13:38:00,66.6,54.9,0.00,NW,315,3.6,7.2,66,0.00,,---,0.00,VWS V13.01,2013-05-09 17:38:00,
2013-05-09 13:43:00,67.1,56.6,0.00,NNW,332,0.0,6.3,69,0.00,,---,0.00,VWS V13.01,2013-05-09 17:43:00,
2013-05-09 13:48:00,67.8,56.9,0.00,North,0,3.1,8.7,68,0.00,,---,0.00,VWS V13.01,2013-05-09 17:48:00,
2013-05-09 13:53:00,67.6,55.9,0.00,North,357,3.1,6.3,66,0.00,,---,0.00,VWS V13.01,2013-05-09 17:53:00,
2013-05-09 13:58:00,67.5,56.1,0.00,NW,304,3.6,7.6,67,0.00,,---,0.00,VWS V13.01,2013-05-09 17:58:00,
2013-05-09 14:03:00,67.5,55.3,0.00,NW,319,2.7,5.4,65,0.00,,---,0.00,VWS V13.01,2013-05-09 18:03:00,
2013-05-09 14:09:00,67.3,56.4,0.00,WNW,292,3.6,5.4,68,0.00,,---,0.00,VWS V13.01,2013-05-09 18:09:00,
2013-05-09 14:14:00,67.1,55.8,0.00,NW,314,7.2,7.2,67,0.00,,---,0.00,VWS V13.01,2013-05-09 18:14:00,
2013-05-09 14:19:00,68.4,57.8,0.00,West,271,0.0,7.2,69,0.00,,---,0.00,VWS V13.01,2013-05-09 18:19:00,
2013-05-09 14:24:00,68.7,55.6,0.00,NNW,338,6.3,6.3,63,0.00,,---,0.00,VWS V13.01,2013-05-09 18:24:00,
2013-05-09 14:29:00,68.2,55.1,0.00,NNW,339,4.0,6.3,63,0.00,,---,0.00,VWS V13.01,2013-05-09 18:29:00,
2013-05-09 14:34:00,68.5,55.9,0.00,WNW,286,3.6,3.6,64,0.00,,---,0.00,VWS V13.01,2013-05-09 18:34:00,
2013-05-09 14:39:00,69.1,56.4,0.00,West,277,4.9,5.8,64,0.00,,---,0.00,VWS V13.01,2013-05-09 18:39:00,
2013-05-09 14:44:00,69.3,56.1,0.00,NW,310,0.0,5.8,63,0.00,,---,0.00,VWS V13.01,2013-05-09 18:44:00,
2013-05-09 14:49:00,68.5,56.7,0.00,WSW,252,4.0,6.3,66,0.00,,---,0.00,VWS V13.01,2013-05-09 18:49:00,
2013-05-09 14:54:00,68.2,57.2,0.00,WSW,238,5.8,6.3,68,0.00,,---,0.00,VWS V13.01,2013-05-09 18:54:00,
2013-05-09 14:59:00,68.2,57.6,0.00,SW,219,3.6,6.7,69,0.00,,---,0.00,VWS V13.01,2013-05-09 18:59:00,
2013-05-09 15:04:00,68.4,58.2,0.00,WNW,285,3.6,3.6,70,0.00,,---,0.00,VWS V13.01,2013-05-09 19:04:00,
2013-05-09 15:09:00,68.9,57.1,0.00,West,264,3.6,6.3,66,0.00,,---,0.00,VWS V13.01,2013-05-09 19:09:00,
2013-05-09 15:14:00,68.4,55.3,0.00,WNW,302,0.0,6.3,63,0.00,,---,0.00,VWS V13.01,2013-05-09 19:14:00,
2013-05-09 15:19:00,68.0,55.4,0.00,WNW,283,0.0,6.3,64,0.00,,---,0.00,VWS V13.01,2013-05-09 19:19:00,
2013-05-09 15:24:00,68.0,57.1,0.00,West,262,5.8,5.8,68,0.00,,---,0.00,VWS V13.01,2013-05-09 19:24:00,
2013-05-09 15:29:00,67.8,56.9,0.00,West,275,5.4,5.8,68,0.00,,---,0.00,VWS V13.01,2013-05-09 19:29:00,
2013-05-09 15:34:00,67.6,57.1,0.00,West,280,3.6,5.8,69,0.00,,---,0.00,VWS V13.01,2013-05-09 19:34:00,
2013-05-09 15:39:00,67.6,57.1,0.00,WSW,250,4.9,6.3,69,0.00,,---,0.00,VWS V13.01,2013-05-09 19:39:00,
2013-05-09 15:44:00,68.2,57.6,0.00,West,270,0.0,5.8,69,0.00,,---,0.00,VWS V13.01,2013-05-09 19:44:00,
2013-05-09 15:49:00,69.4,58.8,0.00,West,277,4.0,6.3,69,0.00,,---,0.00,VWS V13.01,2013-05-09 19:49:00,
2013-05-09 15:55:00,70.7,59.2,0.00,SW,232,4.5,6.3,67,0.00,,---,0.00,VWS V13.01,2013-05-09 19:55:00,
2013-05-09 16:00:00,70.9,58.5,0.00,West,281,3.6,6.3,65,0.00,,---,0.00,VWS V13.01,2013-05-09 20:00:00,
2013-05-09 16:05:00,71.4,58.2,0.00,WNW,289,5.4,5.4,63,0.00,,---,0.00,VWS V13.01,2013-05-09 20:05:00,
2013-05-09 16:10:00,71.4,57.3,0.00,West,260,6.3,7.2,61,0.00,,---,0.00,VWS V13.01,2013-05-09 20:10:00,
2013-05-09 16:15:00,70.9,57.2,0.00,WSW,254,3.6,7.6,62,0.00,,---,0.00,VWS V13.01,2013-05-09 20:15:00,
2013-05-09 16:20:00,70.2,57.4,0.00,West,268,2.2,3.1,64,0.00,,---,0.00,VWS V13.01,2013-05-09 20:20:00,
2013-05-09 16:25:00,70.5,57.8,0.00,West,266,4.0,5.4,64,0.00,,---,0.00,VWS V13.01,2013-05-09 20:25:00,
2013-05-09 16:30:00,70.3,58.0,0.00,WNW,287,4.0,4.9,65,0.00,,---,0.00,VWS V13.01,2013-05-09 20:30:00,
2013-05-09 16:35:00,70.2,57.9,0.00,West,278,4.0,4.9,65,0.00,,---,0.00,VWS V13.01,2013-05-09 20:35:00,
2013-05-09 16:40:00,69.8,56.7,0.00,NW,306,4.0,4.0,63,0.00,,---,0.00,VWS V13.01,2013-05-09 20:40:00,
2013-05-09 16:45:00,69.4,56.3,0.00,West,265,3.6,5.4,63,0.00,,---,0.00,VWS V13.01,2013-05-09 20:45:00,
2013-05-09 16:50:00,69.1,56.4,0.00,WNW,302,2.7,3.1,64,0.00,,---,0.00,VWS V13.01,2013-05-09 20:50:00,
2013-05-09 16:55:00,68.4,55.7,0.00,NW,305,0.0,3.1,64,0.00,,---,0.00,VWS V13.01,2013-05-09 20:55:00,
2013-05-09 17:00:00,67.8,56.1,0.00,WNW,288,0.0,0.0,66,0.00,,---,0.00,VWS V13.01,2013-05-09 21:00:00,
2013-05-09 17:05:00,67.5,56.1,0.00,West,273,4.0,6.3,67,0.00,,---,0.00,VWS V13.01,2013-05-09 21:05:00,
2013-05-09 17:10:00,67.1,56.2,0.00,WNW,287,5.4,5.4,68,0.00,,---,0.00,VWS V13.01,2013-05-09 21:10:00,
2013-05-09 17:15:00,66.7,56.3,0.00,West,274,4.9,6.3,69,0.00,,---,0.00,VWS V13.01,2013-05-09 21:15:00,
2013-05-09 17:20:00,66.6,56.5,0.00,SW,230,2.7,4.0,70,0.00,,---,0.00,VWS V13.01,2013-05-09 21:20:00,
2013-05-09 17:26:00,66.4,56.3,0.00,WNW,301,3.1,4.0,70,0.00,,---,0.00,VWS V13.01,2013-05-09 21:26:00,
2013-05-09 17:31:00,66.2,56.5,0.00,West,262,3.6,4.9,71,0.00,,---,0.00,VWS V13.01,2013-05-09 21:31:00,
2013-05-09 17:36:00,66.0,56.7,0.00,West,267,3.1,6.3,72,0.00,,---,0.00,VWS V13.01,2013-05-09 21:36:00,
2013-05-09 17:41:00,65.8,56.6,0.00,West,266,5.8,5.8,72,0.00,,---,0.00,VWS V13.01,2013-05-09 21:41:00,
2013-05-09 17:46:00,65.7,56.4,0.00,WSW,255,3.1,6.3,72,0.00,,---,0.00,VWS V13.01,2013-05-09 21:46:00,
2013-05-09 17:51:00,66.4,57.1,0.00,West,262,5.4,5.4,72,0.00,,---,0.00,VWS V13.01,2013-05-09 21:51:00,
2013-05-09 17:56:00,66.6,57.3,0.00,WNW,290,3.6,5.8,72,0.00,,---,0.00,VWS V13.01,2013-05-09 21:56:00,
2013-05-09 18:01:00,66.6,56.9,0.00,WSW,257,3.6,5.4,71,0.00,,---,0.00,VWS V13.01,2013-05-09 22:01:00,
2013-05-09 18:06:00,66.6,56.5,0.00,West,274,4.0,5.8,70,0.00,,---,0.00,VWS V13.01,2013-05-09 22:06:00,
2013-05-09 18:11:00,66.9,56.8,0.00,SW,235,3.6,4.9,70,0.00,,---,0.00,VWS V13.01,2013-05-09 22:11:00,
2013-05-09 18:16:00,67.1,57.0,0.00,SW,236,3.6,4.9,70,0.00,,---,0.00,VWS V13.01,2013-05-09 22:16:00,
2013-05-09 18:21:00,67.1,56.6,0.00,WSW,248,3.1,4.9,69,0.00,,---,0.00,VWS V13.01,2013-05-09 22:21:00,
2013-05-09 18:26:00,66.9,56.8,0.00,West,270,3.6,5.4,70,0.00,,---,0.00,VWS V13.01,2013-05-09 22:26:00,
2013-05-09 18:31:00,66.9,56.8,0.00,West,272,5.4,5.4,70,0.00,,---,0.00,VWS V13.01,2013-05-09 22:31:00,
2013-05-09 18:36:00,66.9,56.4,0.00,WSW,240,5.8,5.8,69,0.00,,---,0.00,VWS V13.01,2013-05-09 22:36:00,
2013-05-09 18:41:00,66.7,56.7,0.00,West,266,2.7,4.0,70,0.00,,---,0.00,VWS V13.01,2013-05-09 22:41:00,
2013-05-09 18:46:00,66.6,56.5,0.00,WNW,285,2.2,4.5,70,0.00,,---,0.00,VWS V13.01,2013-05-09 22:46:00,
2013-05-09 18:51:00,66.4,56.3,0.00,West,278,2.7,4.9,70,0.00,,---,0.00,VWS V13.01,2013-05-09 22:51:00,
2013-05-09 18:56:00,66.2,56.5,0.00,West,267,3.1,4.9,71,0.00,,---,0.00,VWS V13.01,2013-05-09 22:56:00,
2013-05-09 19:01:00,66.0,56.4,0.00,WSW,243,2.7,3.6,71,0.00,,---,0.00,VWS V13.01,2013-05-09 23:01:00,
2013-05-09 19:07:00,65.8,56.6,0.00,WSW,242,2.7,4.0,72,0.00,,---,0.00,VWS V13.01,2013-05-09 23:07:00,
2013-05-09 19:12:00,65.5,56.2,0.00,SW,223,2.7,3.6,72,0.00,,---,0.00,VWS V13.01,2013-05-09 23:12:00,
2013-05-09 19:17:00,65.3,56.4,0.00,WSW,248,0.0,4.9,73,0.00,,---,0.00,VWS V13.01,2013-05-09 23:17:00,
2013-05-09 19:22:00,65.1,56.3,0.00,WSW,257,0.0,0.0,73,0.00,,---,0.00,VWS V13.01,2013-05-09 23:22:00,
2013-05-09 19:27:00,64.8,56.7,0.00,WSW,254,0.0,0.0,75,0.00,,---,0.00,VWS V13.01,2013-05-09 23:27:00,
2013-05-09 19:32:00,64.8,57.0,0.00,WSW,254,0.0,0.0,76,0.00,,---,0.00,VWS V13.01,2013-05-09 23:32:00,
2013-05-09 19:37:00,64.6,56.8,0.00,SW,223,0.0,0.0,76,0.00,,---,0.00,VWS V13.01,2013-05-09 23:37:00,
2013-05-09 19:42:00,64.4,57.4,0.00,SW,223,0.0,0.0,78,0.00,,---,0.00,VWS V13.01,2013-05-09 23:42:00,
2013-05-09 19:47:00,64.4,57.4,0.00,West,276,2.7,4.0,78,0.00,,---,0.00,VWS V13.01,2013-05-09 23:47:00,
2013-05-09 19:52:00,64.2,56.9,0.00,West,270,0.0,2.7,77,0.00,,---,0.00,VWS V13.01,2013-05-09 23:52:00,
2013-05-09 19:57:00,64.0,56.7,0.00,West,267,0.0,2.7,77,0.00,,---,0.00,VWS V13.01,2013-05-09 23:57:00,
2013-05-09 20:02:00,63.7,56.3,0.00,West,272,0.0,0.0,77,0.00,,---,0.00,VWS V13.01,2013-05-10 00:02:00,
2013-05-09 20:07:00,63.5,56.2,0.00,WSW,252,3.1,4.0,77,0.00,,---,0.00,VWS V13.01,2013-05-10 00:07:00,
2013-05-09 20:12:00,63.3,56.0,0.00,WSW,257,2.7,4.0,77,0.00,,---,0.00,VWS V13.01,2013-05-10 00:12:00,
2013-05-09 20:17:00,63.1,55.8,0.00,WSW,251,2.7,6.7,77,0.00,,---,0.00,VWS V13.01,2013-05-10 00:17:00,
2013-05-09 20:22:00,62.8,55.1,0.00,West,259,2.2,4.9,76,0.00,,---,0.00,VWS V13.01,2013-05-10 00:22:00,
2013-05-09 20:27:00,62.4,54.8,0.00,WSW,254,0.0,4.9,76,0.00,,---,0.00,VWS V13.01,2013-05-10 00:27:00,
2013-05-09 20:32:00,62.2,54.6,0.00,WSW,250,0.0,3.1,76,0.00,,---,0.00,VWS V13.01,2013-05-10 00:32:00,
2013-05-09 20:37:00,61.9,54.2,0.00,WSW,255,0.0,3.1,76,0.00,,---,0.00,VWS V13.01,2013-05-10 00:37:00,
2013-05-09 20:42:00,61.3,54.1,0.00,WSW,255,0.0,0.0,77,0.00,,---,0.00,VWS V13.01,2013-05-10 00:42:00,
2013-05-09 20:47:00,61.0,53.7,0.00,WSW,255,0.0,0.0,77,0.00,,---,0.00,VWS V13.01,2013-05-10 00:47:00,
2013-05-09 20:52:00,60.6,53.4,0.00,SW,232,0.0,0.0,77,0.00,,---,0.00,VWS V13.01,2013-05-10 00:52:00,
2013-05-09 20:58:00,60.3,53.4,0.00,WSW,256,2.7,2.7,78,0.00,,---,0.00,VWS V13.01,2013-05-10 00:58:00,
2013-05-09 21:03:00,59.9,53.4,0.00,WSW,255,0.0,0.0,79,0.00,,---,0.00,VWS V13.01,2013-05-10 01:03:00,
2013-05-09 21:08:00,59.5,53.0,0.00,WSW,246,0.0,0.0,79,0.00,,---,0.00,VWS V13.01,2013-05-10 01:08:00,
2013-05-09 21:13:00,59.4,53.2,0.00,WSW,246,0.0,0.0,80,0.00,,---,0.00,VWS V13.01,2013-05-10 01:13:00,
2013-05-09 21:18:00,59.2,53.0,0.00,WSW,247,0.0,0.0,80,0.00,,---,0.00,VWS V13.01,2013-05-10 01:18:00,
2013-05-09 21:23:00,59.0,53.2,0.00,WSW,249,2.7,3.6,81,0.00,,---,0.00,VWS V13.01,2013-05-10 01:23:00,
2013-05-09 21:28:00,58.8,53.7,0.00,WSW,252,0.0,3.6,83,0.00,,---,0.00,VWS V13.01,2013-05-10 01:28:00,
2013-05-09 21:33:00,58.8,53.7,0.00,WSW,253,4.0,4.0,83,0.00,,---,0.00,VWS V13.01,2013-05-10 01:33:00,
2013-05-09 21:38:00,58.6,53.5,0.00,WSW,237,4.0,4.9,83,0.00,,---,0.00,VWS V13.01,2013-05-10 01:38:00,
2013-05-09 21:43:00,58.6,53.8,0.00,WSW,253,2.7,4.0,84,0.00,,---,0.00,VWS V13.01,2013-05-10 01:43:00,
2013-05-09 21:48:00,58.6,53.8,0.00,WSW,254,2.7,4.0,84,0.00,,---,0.00,VWS V13.01,2013-05-10 01:48:00,
2013-05-09 21:53:00,58.5,53.7,0.00,WSW,250,3.1,4.0,84,0.00,,---,0.00,VWS V13.01,2013-05-10 01:53:00,
2013-05-09 21:58:00,58.5,53.7,0.00,SW,229,3.6,7.2,84,0.00,,---,0.00,VWS V13.01,2013-05-10 01:58:00,
2013-05-09 22:03:00,58.8,53.7,0.00,WSW,251,4.5,7.2,83,0.00,,---,0.00,VWS V13.01,2013-05-10 02:03:00,
2013-05-09 22:08:00,58.8,53.3,0.00,WSW,252,3.6,7.2,82,0.00,,---,0.00,VWS V13.01,2013-05-10 02:08:00,
2013-05-09 22:13:00,58.8,53.0,0.00,SSW,207,5.4,5.4,81,0.00,,---,0.00,VWS V13.01,2013-05-10 02:13:00,
2013-05-09 22:18:00,58.8,52.7,0.00,WSW,256,3.6,5.4,80,0.00,,---,0.00,VWS V13.01,2013-05-10 02:18:00,
2013-05-09 22:23:00,58.8,52.0,0.00,WSW,246,5.8,5.8,78,0.00,,---,0.00,VWS V13.01,2013-05-10 02:23:00,
2013-05-09 22:28:00,59.0,51.5,0.00,WSW,245,3.6,6.3,76,0.00,,---,0.00,VWS V13.01,2013-05-10 02:28:00,
2013-05-09 22:33:00,59.0,51.1,0.00,SW,236,3.1,5.4,75,0.00,,---,0.00,VWS V13.01,2013-05-10 02:33:00,
2013-05-09 22:39:00,59.0,51.1,0.00,WSW,252,2.7,5.4,75,0.00,,---,0.00,VWS V13.01,2013-05-10 02:39:00,
2013-05-09 22:44:00,59.0,51.1,0.00,WSW,252,5.4,6.3,75,0.00,,---,0.00,VWS V13.01,2013-05-10 02:44:00,
2013-05-09 22:49:00,58.8,50.6,0.00,WSW,243,5.8,6.3,74,0.00,,---,0.00,VWS V13.01,2013-05-10 02:49:00,
2013-05-09 22:54:00,58.6,50.4,0.00,WSW,243,0.0,4.0,74,0.00,,---,0.00,VWS V13.01,2013-05-10 02:54:00,
2013-05-09 22:59:00,58.5,50.2,0.00,SW,225,0.0,4.0,74,0.00,,---,0.00,VWS V13.01,2013-05-10 02:59:00,
2013-05-09 23:04:00,58.1,50.2,0.00,West,263,0.0,0.0,75,0.00,,---,0.00,VWS V13.01,2013-05-10 03:04:00,
2013-05-09 23:09:00,57.9,50.4,0.00,WSW,239,0.0,0.0,76,0.00,,---,0.00,VWS V13.01,2013-05-10 03:09:00,
2013-05-09 23:14:00,57.6,50.4,0.00,WSW,239,0.0,0.0,77,0.00,,---,0.00,VWS V13.01,2013-05-10 03:14:00,
2013-05-09 23:19:00,57.4,50.6,0.00,WSW,239,0.0,0.0,78,0.00,,---,0.00,VWS V13.01,2013-05-10 03:19:00,
2013-05-09 23:24:00,57.0,50.6,0.00,WSW,239,0.0,0.0,79,0.00,,---,0.00,VWS V13.01,2013-05-10 03:24:00,
2013-05-09 23:29:00,56.8,50.7,0.00,WSW,239,0.0,0.0,80,0.00,,---,0.00,VWS V13.01,2013-05-10 03:29:00,
2013-05-09 23:34:00,56.7,50.6,0.00,WSW,239,0.0,0.0,80,0.00,,---,0.00,VWS V13.01,2013-05-10 03:34:00,
2013-05-09 23:39:00,56.3,50.5,0.00,WSW,239,0.0,0.0,81,0.00,,---,0.00,VWS V13.01,2013-05-10 03:39:00,
2013-05-09 23:44:00,56.1,50.4,0.00,WSW,239,0.0,0.0,81,0.00,,---,0.00,VWS V13.01,2013-05-10 03:44:00,
2013-05-09 23:49:00,55.9,50.5,0.00,WSW,239,0.0,0.0,82,0.00,,---,0.00,VWS V13.01,2013-05-10 03:49:00,
2013-05-09 23:54:00,55.6,50.2,0.00,WSW,239,0.0,0.0,82,0.00,,---,0.00,VWS V13.01,2013-05-10 03:54:00,
2013-05-09 23:59:00,55.4,50.0,0.00,WSW,239,0.0,0.0,82,0.00,,---,0.00,VWS V13.01,2013-05-10 03:59:00,